sensor_id;sensor_type;location;lat;lon;timestamp;temperature;humidity
19799;DHT22;10059;59.850;10.454;2023-05-23T00:01:46;15.80;99.90
19799;DHT22;10059;59.850;10.454;2023-05-23T00:04:14;15.80;99.90
19799;DHT22;10059;59.850;10.454;2023-05-23T00:06:43;16.00;99.90
19799;DHT22;10059;59.850;10.454;2023-05-23T00:09:12;16.00;99.90
19799;DHT22;10059;59.850;10.454;2023-05-23T00:11:39;15.80;99.90
19799;DHT22;10059;59.850;10.454;2023-05-23T00:14:11;15.80;99.90
19799;DHT22;10059;59.850;10.454;2023-05-23T00:16:39;15.80;99.90
19799;DHT22;10059;59.850;10.454;2023-05-23T00:19:07;15.80;99.90
19799;DHT22;10059;59.850;10.454;2023-05-23T00:21:34;15.80;99.90
19799;DHT22;10059;59.850;10.454;2023-05-23T00:24:01;15.90;99.90
19799;DHT22;10059;59.850;10.454;2023-05-23T00:26:29;15.70;99.90
19799;DHT22;10059;59.850;10.454;2023-05-23T00:28:56;15.60;99.90
19799;DHT22;10059;59.850;10.454;2023-05-23T00:31:24;15.60;99.90
19799;DHT22;10059;59.850;10.454;2023-05-23T00:33:51;15.80;99.90
19799;DHT22;10059;59.850;10.454;2023-05-23T00:36:18;15.80;99.90
19799;DHT22;10059;59.850;10.454;2023-05-23T00:38:46;15.80;99.90
19799;DHT22;10059;59.850;10.454;2023-05-23T00:41:13;15.90;99.90
19799;DHT22;10059;59.850;10.454;2023-05-23T00:43:40;15.70;99.90
19799;DHT22;10059;59.850;10.454;2023-05-23T00:46:07;15.70;99.90
19799;DHT22;10059;59.850;10.454;2023-05-23T00:48:37;15.60;99.90
19799;DHT22;10059;59.850;10.454;2023-05-23T00:51:04;15.70;99.90
19799;DHT22;10059;59.850;10.454;2023-05-23T00:53:31;15.50;99.90
19799;DHT22;10059;59.850;10.454;2023-05-23T00:55:59;15.20;99.90
19799;DHT22;10059;59.850;10.454;2023-05-23T00:58:26;15.00;99.90
19799;DHT22;10059;59.850;10.454;2023-05-23T01:00:53;15.00;99.90
19799;DHT22;10059;59.850;10.454;2023-05-23T01:03:20;14.90;99.90
19799;DHT22;10059;59.850;10.454;2023-05-23T01:05:49;14.90;99.90
19799;DHT22;10059;59.850;10.454;2023-05-23T01:08:16;15.10;99.90
19799;DHT22;10059;59.850;10.454;2023-05-23T01:10:43;15.00;99.90
19799;DHT22;10059;59.850;10.454;2023-05-23T01:13:19;14.80;99.90
19799;DHT22;10059;59.850;10.454;2023-05-23T01:16:02;14.90;99.90
19799;DHT22;10059;59.850;10.454;2023-05-23T01:18:36;14.90;99.90
19799;DHT22;10059;59.850;10.454;2023-05-23T01:21:11;14.70;99.90
19799;DHT22;10059;59.850;10.454;2023-05-23T01:23:54;14.70;99.90
19799;DHT22;10059;59.850;10.454;2023-05-23T01:26:32;14.70;99.90
19799;DHT22;10059;59.850;10.454;2023-05-23T01:29:06;14.70;99.90
19799;DHT22;10059;59.850;10.454;2023-05-23T01:31:36;14.70;99.90
19799;DHT22;10059;59.850;10.454;2023-05-23T01:34:06;14.80;99.90
19799;DHT22;10059;59.850;10.454;2023-05-23T01:36:33;14.80;99.90
19799;DHT22;10059;59.850;10.454;2023-05-23T01:39:01;14.90;99.90
19799;DHT22;10059;59.850;10.454;2023-05-23T01:41:27;14.90;99.90
19799;DHT22;10059;59.850;10.454;2023-05-23T01:43:54;14.90;99.90
19799;DHT22;10059;59.850;10.454;2023-05-23T01:46:23;14.80;99.90
19799;DHT22;10059;59.850;10.454;2023-05-23T01:48:51;14.80;99.90
19799;DHT22;10059;59.850;10.454;2023-05-23T01:51:20;15.00;99.90
19799;DHT22;10059;59.850;10.454;2023-05-23T01:53:48;15.10;99.90
19799;DHT22;10059;59.850;10.454;2023-05-23T01:56:15;15.20;99.90
19799;DHT22;10059;59.850;10.454;2023-05-23T01:58:43;15.10;99.90
19799;DHT22;10059;59.850;10.454;2023-05-23T02:01:10;15.00;99.90
19799;DHT22;10059;59.850;10.454;2023-05-23T02:03:38;15.00;99.90
19799;DHT22;10059;59.850;10.454;2023-05-23T02:06:05;15.00;99.90
19799;DHT22;10059;59.850;10.454;2023-05-23T02:08:32;14.80;99.90
19799;DHT22;10059;59.850;10.454;2023-05-23T02:10:59;14.80;99.90
19799;DHT22;10059;59.850;10.454;2023-05-23T02:13:26;14.80;99.90
19799;DHT22;10059;59.850;10.454;2023-05-23T02:15:53;14.90;99.90
19799;DHT22;10059;59.850;10.454;2023-05-23T02:18:19;14.90;99.90
19799;DHT22;10059;59.850;10.454;2023-05-23T02:20:48;14.80;99.90
19799;DHT22;10059;59.850;10.454;2023-05-23T02:23:15;14.80;99.90
19799;DHT22;10059;59.850;10.454;2023-05-23T02:25:42;14.80;99.90
19799;DHT22;10059;59.850;10.454;2023-05-23T02:28:08;14.60;99.90
19799;DHT22;10059;59.850;10.454;2023-05-23T02:30:36;14.70;99.90
19799;DHT22;10059;59.850;10.454;2023-05-23T02:33:04;14.70;99.90
19799;DHT22;10059;59.850;10.454;2023-05-23T02:35:31;14.70;99.90
19799;DHT22;10059;59.850;10.454;2023-05-23T02:37:59;14.70;99.90
19799;DHT22;10059;59.850;10.454;2023-05-23T02:40:26;14.80;99.90
19799;DHT22;10059;59.850;10.454;2023-05-23T02:42:52;14.60;99.90
19799;DHT22;10059;59.850;10.454;2023-05-23T02:45:22;14.60;99.90
19799;DHT22;10059;59.850;10.454;2023-05-23T02:47:48;14.70;99.90
19799;DHT22;10059;59.850;10.454;2023-05-23T02:50:15;14.70;99.90
19799;DHT22;10059;59.850;10.454;2023-05-23T02:52:42;14.80;99.90
19799;DHT22;10059;59.850;10.454;2023-05-23T02:55:11;14.80;99.90
19799;DHT22;10059;59.850;10.454;2023-05-23T02:57:37;14.60;99.90
19799;DHT22;10059;59.850;10.454;2023-05-23T03:00:06;14.80;99.90
19799;DHT22;10059;59.850;10.454;2023-05-23T03:02:34;14.90;99.90
19799;DHT22;10059;59.850;10.454;2023-05-23T03:05:01;14.80;99.90
19799;DHT22;10059;59.850;10.454;2023-05-23T03:07:28;14.90;99.90
19799;DHT22;10059;59.850;10.454;2023-05-23T03:09:58;15.00;99.90
19799;DHT22;10059;59.850;10.454;2023-05-23T03:12:27;15.10;99.90
19799;DHT22;10059;59.850;10.454;2023-05-23T03:14:54;15.20;99.90
19799;DHT22;10059;59.850;10.454;2023-05-23T03:17:24;15.00;99.90
19799;DHT22;10059;59.850;10.454;2023-05-23T03:19:51;15.00;99.90
19799;DHT22;10059;59.850;10.454;2023-05-23T03:22:18;15.00;99.90
19799;DHT22;10059;59.850;10.454;2023-05-23T03:24:45;15.00;99.90
19799;DHT22;10059;59.850;10.454;2023-05-23T03:27:12;15.00;99.90
19799;DHT22;10059;59.850;10.454;2023-05-23T03:29:40;15.00;99.90
19799;DHT22;10059;59.850;10.454;2023-05-23T03:32:07;15.00;99.90
19799;DHT22;10059;59.850;10.454;2023-05-23T03:34:34;14.90;99.90
19799;DHT22;10059;59.850;10.454;2023-05-23T03:37:01;14.90;99.90
19799;DHT22;10059;59.850;10.454;2023-05-23T03:39:28;14.90;99.90
19799;DHT22;10059;59.850;10.454;2023-05-23T03:41:55;14.90;99.90
19799;DHT22;10059;59.850;10.454;2023-05-23T03:44:22;14.80;99.90
19799;DHT22;10059;59.850;10.454;2023-05-23T03:46:50;14.70;99.90
19799;DHT22;10059;59.850;10.454;2023-05-23T03:49:17;14.80;99.90
19799;DHT22;10059;59.850;10.454;2023-05-23T03:51:44;14.90;99.90
19799;DHT22;10059;59.850;10.454;2023-05-23T03:54:11;14.90;99.90
19799;DHT22;10059;59.850;10.454;2023-05-23T03:56:37;14.90;99.90
19799;DHT22;10059;59.850;10.454;2023-05-23T03:59:04;14.80;99.90
19799;DHT22;10059;59.850;10.454;2023-05-23T04:01:31;14.80;99.90
19799;DHT22;10059;59.850;10.454;2023-05-23T04:03:59;14.80;99.90
19799;DHT22;10059;59.850;10.454;2023-05-23T04:06:26;14.90;99.90
19799;DHT22;10059;59.850;10.454;2023-05-23T04:08:55;15.00;99.90
19799;DHT22;10059;59.850;10.454;2023-05-23T04:11:22;15.10;99.90
19799;DHT22;10059;59.850;10.454;2023-05-23T04:13:49;15.10;99.90
19799;DHT22;10059;59.850;10.454;2023-05-23T04:16:16;15.00;99.90
19799;DHT22;10059;59.850;10.454;2023-05-23T04:18:43;15.00;99.90
19799;DHT22;10059;59.850;10.454;2023-05-23T04:21:13;14.90;99.90
19799;DHT22;10059;59.850;10.454;2023-05-23T04:23:40;15.00;99.90
19799;DHT22;10059;59.850;10.454;2023-05-23T04:26:06;15.00;99.90
19799;DHT22;10059;59.850;10.454;2023-05-23T04:28:34;15.00;99.90
19799;DHT22;10059;59.850;10.454;2023-05-23T04:31:02;15.00;99.90
19799;DHT22;10059;59.850;10.454;2023-05-23T04:33:29;15.10;99.90
19799;DHT22;10059;59.850;10.454;2023-05-23T04:35:56;15.10;99.90
19799;DHT22;10059;59.850;10.454;2023-05-23T04:38:24;15.00;99.90
19799;DHT22;10059;59.850;10.454;2023-05-23T04:40:53;15.00;99.90
19799;DHT22;10059;59.850;10.454;2023-05-23T04:43:19;15.10;99.90
19799;DHT22;10059;59.850;10.454;2023-05-23T04:45:46;15.20;99.90
19799;DHT22;10059;59.850;10.454;2023-05-23T04:48:15;15.20;99.90
19799;DHT22;10059;59.850;10.454;2023-05-23T04:50:46;15.40;99.90
19799;DHT22;10059;59.850;10.454;2023-05-23T04:53:15;15.40;99.90
19799;DHT22;10059;59.850;10.454;2023-05-23T04:55:44;15.40;99.90
19799;DHT22;10059;59.850;10.454;2023-05-23T04:58:10;15.50;99.90
19799;DHT22;10059;59.850;10.454;2023-05-23T05:00:38;15.60;99.90
19799;DHT22;10059;59.850;10.454;2023-05-23T05:03:05;15.70;99.90
19799;DHT22;10059;59.850;10.454;2023-05-23T05:05:34;15.60;99.90
19799;DHT22;10059;59.850;10.454;2023-05-23T05:08:01;15.60;99.90
19799;DHT22;10059;59.850;10.454;2023-05-23T05:10:27;15.50;99.90
19799;DHT22;10059;59.850;10.454;2023-05-23T05:12:56;15.60;99.90
19799;DHT22;10059;59.850;10.454;2023-05-23T05:15:22;15.60;99.90
19799;DHT22;10059;59.850;10.454;2023-05-23T05:17:50;15.50;99.90
19799;DHT22;10059;59.850;10.454;2023-05-23T05:20:17;15.40;99.90
19799;DHT22;10059;59.850;10.454;2023-05-23T05:22:45;15.20;99.90
19799;DHT22;10059;59.850;10.454;2023-05-23T05:25:12;15.20;99.90
19799;DHT22;10059;59.850;10.454;2023-05-23T05:27:39;15.30;99.90
19799;DHT22;10059;59.850;10.454;2023-05-23T05:30:08;15.30;99.90
19799;DHT22;10059;59.850;10.454;2023-05-23T05:32:35;15.30;99.90
19799;DHT22;10059;59.850;10.454;2023-05-23T05:35:02;15.20;99.90
19799;DHT22;10059;59.850;10.454;2023-05-23T05:37:29;15.10;99.90
19799;DHT22;10059;59.850;10.454;2023-05-23T05:39:56;15.30;99.90
19799;DHT22;10059;59.850;10.454;2023-05-23T05:42:23;15.50;99.90
19799;DHT22;10059;59.850;10.454;2023-05-23T05:44:50;15.30;99.90
19799;DHT22;10059;59.850;10.454;2023-05-23T05:47:18;15.20;99.90
19799;DHT22;10059;59.850;10.454;2023-05-23T05:49:45;15.20;99.90
19799;DHT22;10059;59.850;10.454;2023-05-23T05:52:12;15.20;99.90
19799;DHT22;10059;59.850;10.454;2023-05-23T05:54:39;15.10;99.90
19799;DHT22;10059;59.850;10.454;2023-05-23T05:57:05;15.00;99.90
19799;DHT22;10059;59.850;10.454;2023-05-23T05:59:32;14.70;99.90
19799;DHT22;10059;59.850;10.454;2023-05-23T06:01:59;14.30;99.90
19799;DHT22;10059;59.850;10.454;2023-05-23T06:04:28;14.20;99.90
19799;DHT22;10059;59.850;10.454;2023-05-23T06:06:55;14.30;99.90
19799;DHT22;10059;59.850;10.454;2023-05-23T06:09:22;14.30;99.90
19799;DHT22;10059;59.850;10.454;2023-05-23T06:11:49;14.40;99.90
19799;DHT22;10059;59.850;10.454;2023-05-23T06:14:16;14.40;99.90
19799;DHT22;10059;59.850;10.454;2023-05-23T06:16:43;14.50;99.90
19799;DHT22;10059;59.850;10.454;2023-05-23T06:19:10;14.40;99.90
19799;DHT22;10059;59.850;10.454;2023-05-23T06:21:38;14.40;99.90
19799;DHT22;10059;59.850;10.454;2023-05-23T06:24:05;14.40;99.90
19799;DHT22;10059;59.850;10.454;2023-05-23T06:26:32;14.30;99.90
19799;DHT22;10059;59.850;10.454;2023-05-23T06:28:58;14.20;99.90
19799;DHT22;10059;59.850;10.454;2023-05-23T06:31:25;14.00;99.90
19799;DHT22;10059;59.850;10.454;2023-05-23T06:33:52;14.00;99.90
19799;DHT22;10059;59.850;10.454;2023-05-23T06:36:19;14.10;99.90
19799;DHT22;10059;59.850;10.454;2023-05-23T06:38:48;14.20;99.90
19799;DHT22;10059;59.850;10.454;2023-05-23T06:41:14;14.30;99.90
19799;DHT22;10059;59.850;10.454;2023-05-23T06:43:41;14.40;99.90
19799;DHT22;10059;59.850;10.454;2023-05-23T06:46:08;14.40;99.90
19799;DHT22;10059;59.850;10.454;2023-05-23T06:48:35;14.40;99.90
19799;DHT22;10059;59.850;10.454;2023-05-23T06:51:02;14.40;99.90
19799;DHT22;10059;59.850;10.454;2023-05-23T06:53:29;14.20;99.90
19799;DHT22;10059;59.850;10.454;2023-05-23T06:55:57;14.20;99.90
19799;DHT22;10059;59.850;10.454;2023-05-23T06:58:24;14.10;99.90
19799;DHT22;10059;59.850;10.454;2023-05-23T07:00:51;14.20;99.90
19799;DHT22;10059;59.850;10.454;2023-05-23T07:03:18;14.20;99.90
19799;DHT22;10059;59.850;10.454;2023-05-23T07:05:45;14.30;99.90
19799;DHT22;10059;59.850;10.454;2023-05-23T07:08:11;14.20;99.90
19799;DHT22;10059;59.850;10.454;2023-05-23T07:10:38;14.20;99.90
19799;DHT22;10059;59.850;10.454;2023-05-23T07:13:07;14.10;99.90
19799;DHT22;10059;59.850;10.454;2023-05-23T07:15:34;13.60;99.90
19799;DHT22;10059;59.850;10.454;2023-05-23T07:18:01;13.50;99.90
19799;DHT22;10059;59.850;10.454;2023-05-23T07:20:28;13.50;99.90
19799;DHT22;10059;59.850;10.454;2023-05-23T07:22:55;13.60;99.90
19799;DHT22;10059;59.850;10.454;2023-05-23T07:25:22;13.80;99.90
19799;DHT22;10059;59.850;10.454;2023-05-23T07:27:49;13.90;99.90
19799;DHT22;10059;59.850;10.454;2023-05-23T07:30:20;13.90;99.90
19799;DHT22;10059;59.850;10.454;2023-05-23T07:32:47;13.90;99.90
19799;DHT22;10059;59.850;10.454;2023-05-23T07:35:14;14.00;99.90
19799;DHT22;10059;59.850;10.454;2023-05-23T07:37:41;14.00;99.90
19799;DHT22;10059;59.850;10.454;2023-05-23T07:40:08;14.00;99.90
19799;DHT22;10059;59.850;10.454;2023-05-23T07:42:36;14.00;99.90
19799;DHT22;10059;59.850;10.454;2023-05-23T07:45:03;13.90;99.90
19799;DHT22;10059;59.850;10.454;2023-05-23T07:47:31;13.70;99.90
19799;DHT22;10059;59.850;10.454;2023-05-23T07:49:58;13.60;99.90
19799;DHT22;10059;59.850;10.454;2023-05-23T07:52:28;13.50;99.90
19799;DHT22;10059;59.850;10.454;2023-05-23T07:54:55;13.30;99.90
19799;DHT22;10059;59.850;10.454;2023-05-23T07:57:22;13.30;99.90
19799;DHT22;10059;59.850;10.454;2023-05-23T07:59:50;13.20;99.90
19799;DHT22;10059;59.850;10.454;2023-05-23T08:02:17;13.20;99.90
19799;DHT22;10059;59.850;10.454;2023-05-23T08:04:46;13.20;99.90
19799;DHT22;10059;59.850;10.454;2023-05-23T08:07:14;13.40;99.90
19799;DHT22;10059;59.850;10.454;2023-05-23T08:09:41;13.70;99.90
19799;DHT22;10059;59.850;10.454;2023-05-23T08:12:08;13.70;99.90
19799;DHT22;10059;59.850;10.454;2023-05-23T08:14:35;13.80;99.90
19799;DHT22;10059;59.850;10.454;2023-05-23T08:17:02;14.10;99.90
19799;DHT22;10059;59.850;10.454;2023-05-23T08:19:29;14.30;99.90
19799;DHT22;10059;59.850;10.454;2023-05-23T08:21:57;14.60;99.90
19799;DHT22;10059;59.850;10.454;2023-05-23T08:24:24;14.90;99.90
19799;DHT22;10059;59.850;10.454;2023-05-23T08:26:51;15.30;99.90
19799;DHT22;10059;59.850;10.454;2023-05-23T08:29:18;15.70;99.90
19799;DHT22;10059;59.850;10.454;2023-05-23T08:31:45;15.80;99.90
19799;DHT22;10059;59.850;10.454;2023-05-23T08:34:11;15.90;99.90
19799;DHT22;10059;59.850;10.454;2023-05-23T08:36:39;15.90;99.90
19799;DHT22;10059;59.850;10.454;2023-05-23T08:39:08;16.10;99.90
19799;DHT22;10059;59.850;10.454;2023-05-23T08:41:36;15.90;99.90
19799;DHT22;10059;59.850;10.454;2023-05-23T08:44:03;15.80;99.90
19799;DHT22;10059;59.850;10.454;2023-05-23T08:46:32;15.40;99.90
19799;DHT22;10059;59.850;10.454;2023-05-23T08:49:01;15.20;99.90
19799;DHT22;10059;59.850;10.454;2023-05-23T08:51:28;15.10;99.90
19799;DHT22;10059;59.850;10.454;2023-05-23T08:53:56;15.30;99.90
19799;DHT22;10059;59.850;10.454;2023-05-23T08:56:25;15.20;99.90
19799;DHT22;10059;59.850;10.454;2023-05-23T08:58:52;15.20;99.90
19799;DHT22;10059;59.850;10.454;2023-05-23T09:01:20;15.30;99.90
19799;DHT22;10059;59.850;10.454;2023-05-23T09:03:47;15.50;99.90
19799;DHT22;10059;59.850;10.454;2023-05-23T09:06:15;15.40;99.90
19799;DHT22;10059;59.850;10.454;2023-05-23T09:08:43;15.90;99.90
19799;DHT22;10059;59.850;10.454;2023-05-23T09:11:10;16.20;99.90
19799;DHT22;10059;59.850;10.454;2023-05-23T09:13:40;16.30;99.90
19799;DHT22;10059;59.850;10.454;2023-05-23T09:16:09;16.20;99.90
19799;DHT22;10059;59.850;10.454;2023-05-23T09:18:38;16.10;99.90
19799;DHT22;10059;59.850;10.454;2023-05-23T09:21:07;16.20;99.90
19799;DHT22;10059;59.850;10.454;2023-05-23T09:23:35;16.20;99.90
19799;DHT22;10059;59.850;10.454;2023-05-23T09:26:02;16.10;99.90
19799;DHT22;10059;59.850;10.454;2023-05-23T09:28:29;16.20;99.90
19799;DHT22;10059;59.850;10.454;2023-05-23T09:31:01;16.20;99.90
19799;DHT22;10059;59.850;10.454;2023-05-23T09:33:34;16.10;99.90
19799;DHT22;10059;59.850;10.454;2023-05-23T09:36:03;16.30;99.90
19799;DHT22;10059;59.850;10.454;2023-05-23T09:38:30;16.50;99.90
19799;DHT22;10059;59.850;10.454;2023-05-23T09:40:58;16.10;99.90
19799;DHT22;10059;59.850;10.454;2023-05-23T09:43:25;16.00;99.90
19799;DHT22;10059;59.850;10.454;2023-05-23T09:45:54;15.70;99.90
19799;DHT22;10059;59.850;10.454;2023-05-23T09:48:28;15.80;99.90
19799;DHT22;10059;59.850;10.454;2023-05-23T09:50:56;15.60;99.90
19799;DHT22;10059;59.850;10.454;2023-05-23T09:53:23;15.70;99.90
19799;DHT22;10059;59.850;10.454;2023-05-23T09:55:50;15.60;99.90
19799;DHT22;10059;59.850;10.454;2023-05-23T09:58:19;15.40;99.90
19799;DHT22;10059;59.850;10.454;2023-05-23T10:00:49;15.30;99.90
19799;DHT22;10059;59.850;10.454;2023-05-23T10:03:21;15.50;99.90
19799;DHT22;10059;59.850;10.454;2023-05-23T10:05:55;15.30;99.90
19799;DHT22;10059;59.850;10.454;2023-05-23T10:08:26;15.20;99.90
19799;DHT22;10059;59.850;10.454;2023-05-23T10:14:08;15.80;99.90
19799;DHT22;10059;59.850;10.454;2023-05-23T10:16:41;15.90;99.90
19799;DHT22;10059;59.850;10.454;2023-05-23T10:19:14;16.50;99.90
19799;DHT22;10059;59.850;10.454;2023-05-23T10:21:49;16.60;99.90
19799;DHT22;10059;59.850;10.454;2023-05-23T10:24:20;16.90;99.90
19799;DHT22;10059;59.850;10.454;2023-05-23T10:26:47;16.90;99.90
19799;DHT22;10059;59.850;10.454;2023-05-23T10:29:14;17.20;99.90
19799;DHT22;10059;59.850;10.454;2023-05-23T10:31:42;17.10;99.90
19799;DHT22;10059;59.850;10.454;2023-05-23T10:34:14;16.80;99.90
19799;DHT22;10059;59.850;10.454;2023-05-23T10:36:59;17.00;99.90
19799;DHT22;10059;59.850;10.454;2023-05-23T10:39:33;17.30;99.90
19799;DHT22;10059;59.850;10.454;2023-05-23T10:42:03;17.50;99.90
19799;DHT22;10059;59.850;10.454;2023-05-23T10:44:33;17.60;99.90
19799;DHT22;10059;59.850;10.454;2023-05-23T10:47:00;17.80;99.90
19799;DHT22;10059;59.850;10.454;2023-05-23T10:49:48;17.40;99.90
19799;DHT22;10059;59.850;10.454;2023-05-23T10:52:18;17.40;99.90
19799;DHT22;10059;59.850;10.454;2023-05-23T10:54:47;17.10;99.90
19799;DHT22;10059;59.850;10.454;2023-05-23T10:57:16;17.10;99.90
19799;DHT22;10059;59.850;10.454;2023-05-23T10:59:44;17.00;99.90
19799;DHT22;10059;59.850;10.454;2023-05-23T11:02:25;16.50;99.90
19799;DHT22;10059;59.850;10.454;2023-05-23T11:05:20;16.40;99.90
19799;DHT22;10059;59.850;10.454;2023-05-23T11:08:05;16.30;99.90
19799;DHT22;10059;59.850;10.454;2023-05-23T11:10:32;16.20;99.90
19799;DHT22;10059;59.850;10.454;2023-05-23T11:13:17;16.30;99.90
19799;DHT22;10059;59.850;10.454;2023-05-23T11:15:44;16.00;99.90
19799;DHT22;10059;59.850;10.454;2023-05-23T11:18:20;16.00;99.90
19799;DHT22;10059;59.850;10.454;2023-05-23T11:20:49;16.30;99.90
19799;DHT22;10059;59.850;10.454;2023-05-23T11:23:19;16.80;99.90
19799;DHT22;10059;59.850;10.454;2023-05-23T11:25:48;17.30;99.90
19799;DHT22;10059;59.850;10.454;2023-05-23T11:28:16;17.90;99.90
19799;DHT22;10059;59.850;10.454;2023-05-23T11:30:45;18.80;99.90
19799;DHT22;10059;59.850;10.454;2023-05-23T11:33:14;19.10;99.90
19799;DHT22;10059;59.850;10.454;2023-05-23T11:35:42;19.90;99.90
19799;DHT22;10059;59.850;10.454;2023-05-23T11:38:09;20.30;99.90
19799;DHT22;10059;59.850;10.454;2023-05-23T11:40:39;20.90;99.90
19799;DHT22;10059;59.850;10.454;2023-05-23T11:43:07;20.70;99.90
19799;DHT22;10059;59.850;10.454;2023-05-23T11:45:35;19.90;99.90
19799;DHT22;10059;59.850;10.454;2023-05-23T11:48:06;19.80;99.90
19799;DHT22;10059;59.850;10.454;2023-05-23T11:50:34;19.20;99.90
19799;DHT22;10059;59.850;10.454;2023-05-23T11:53:08;19.00;99.90
19799;DHT22;10059;59.850;10.454;2023-05-23T11:55:40;19.10;99.90
19799;DHT22;10059;59.850;10.454;2023-05-23T11:58:13;19.20;99.90
19799;DHT22;10059;59.850;10.454;2023-05-23T12:00:43;19.80;99.90
19799;DHT22;10059;59.850;10.454;2023-05-23T12:03:10;20.40;99.90
19799;DHT22;10059;59.850;10.454;2023-05-23T12:05:37;20.10;99.90
19799;DHT22;10059;59.850;10.454;2023-05-23T12:08:04;19.60;99.90
19799;DHT22;10059;59.850;10.454;2023-05-23T12:10:31;20.10;99.90
19799;DHT22;10059;59.850;10.454;2023-05-23T12:12:59;20.50;99.90
19799;DHT22;10059;59.850;10.454;2023-05-23T12:15:26;21.10;99.90
19799;DHT22;10059;59.850;10.454;2023-05-23T12:17:56;21.60;99.90
19799;DHT22;10059;59.850;10.454;2023-05-23T12:20:25;21.00;99.90
19799;DHT22;10059;59.850;10.454;2023-05-23T12:22:53;21.00;99.90
19799;DHT22;10059;59.850;10.454;2023-05-23T12:25:20;20.70;99.90
19799;DHT22;10059;59.850;10.454;2023-05-23T12:27:47;20.30;99.90
19799;DHT22;10059;59.850;10.454;2023-05-23T12:30:16;20.00;99.90
19799;DHT22;10059;59.850;10.454;2023-05-23T12:32:45;19.40;99.90
19799;DHT22;10059;59.850;10.454;2023-05-23T12:35:13;18.90;99.90
19799;DHT22;10059;59.850;10.454;2023-05-23T12:37:40;18.80;99.90
19799;DHT22;10059;59.850;10.454;2023-05-23T12:40:12;18.50;99.90
19799;DHT22;10059;59.850;10.454;2023-05-23T12:42:52;18.30;99.90
19799;DHT22;10059;59.850;10.454;2023-05-23T12:45:21;18.40;99.90
19799;DHT22;10059;59.850;10.454;2023-05-23T12:47:48;18.30;99.90
19799;DHT22;10059;59.850;10.454;2023-05-23T12:50:16;18.40;99.90
19799;DHT22;10059;59.850;10.454;2023-05-23T12:52:42;18.20;99.90
19799;DHT22;10059;59.850;10.454;2023-05-23T12:55:10;18.00;99.90
19799;DHT22;10059;59.850;10.454;2023-05-23T12:57:38;17.80;99.90
19799;DHT22;10059;59.850;10.454;2023-05-23T13:00:06;18.00;99.90
19799;DHT22;10059;59.850;10.454;2023-05-23T13:02:34;18.30;99.90
19799;DHT22;10059;59.850;10.454;2023-05-23T13:05:01;18.50;99.90
19799;DHT22;10059;59.850;10.454;2023-05-23T13:07:28;18.60;99.90
19799;DHT22;10059;59.850;10.454;2023-05-23T13:09:55;19.10;99.90
19799;DHT22;10059;59.850;10.454;2023-05-23T13:12:22;20.00;99.90
19799;DHT22;10059;59.850;10.454;2023-05-23T13:14:50;20.50;99.90
19799;DHT22;10059;59.850;10.454;2023-05-23T13:17:17;21.00;99.90
19799;DHT22;10059;59.850;10.454;2023-05-23T13:19:45;20.50;99.90
19799;DHT22;10059;59.850;10.454;2023-05-23T13:22:12;19.80;99.90
19799;DHT22;10059;59.850;10.454;2023-05-23T13:24:39;20.00;99.90
19799;DHT22;10059;59.850;10.454;2023-05-23T13:27:08;20.00;99.90
19799;DHT22;10059;59.850;10.454;2023-05-23T13:29:34;20.30;99.90
19799;DHT22;10059;59.850;10.454;2023-05-23T13:32:01;20.20;99.90
19799;DHT22;10059;59.850;10.454;2023-05-23T13:34:28;20.00;99.90
19799;DHT22;10059;59.850;10.454;2023-05-23T13:36:56;19.70;99.90
19799;DHT22;10059;59.850;10.454;2023-05-23T13:39:23;19.90;99.90
19799;DHT22;10059;59.850;10.454;2023-05-23T13:41:50;19.90;99.90
19799;DHT22;10059;59.850;10.454;2023-05-23T13:44:17;19.70;99.90
19799;DHT22;10059;59.850;10.454;2023-05-23T13:46:44;19.00;99.90
19799;DHT22;10059;59.850;10.454;2023-05-23T13:49:10;18.30;99.90
19799;DHT22;10059;59.850;10.454;2023-05-23T13:51:37;18.40;99.90
19799;DHT22;10059;59.850;10.454;2023-05-23T13:54:05;18.40;99.90
19799;DHT22;10059;59.850;10.454;2023-05-23T13:56:32;18.70;99.90
19799;DHT22;10059;59.850;10.454;2023-05-23T13:59:00;18.60;99.90
19799;DHT22;10059;59.850;10.454;2023-05-23T14:01:27;18.60;99.90
19799;DHT22;10059;59.850;10.454;2023-05-23T14:03:54;18.80;99.90
19799;DHT22;10059;59.850;10.454;2023-05-23T14:06:21;18.20;99.90
19799;DHT22;10059;59.850;10.454;2023-05-23T14:08:48;18.10;99.90
19799;DHT22;10059;59.850;10.454;2023-05-23T14:11:16;18.40;99.90
19799;DHT22;10059;59.850;10.454;2023-05-23T14:13:43;18.50;99.90
19799;DHT22;10059;59.850;10.454;2023-05-23T14:16:09;18.70;99.90
19799;DHT22;10059;59.850;10.454;2023-05-23T14:18:36;18.20;99.90
19799;DHT22;10059;59.850;10.454;2023-05-23T14:21:03;17.80;99.90
19799;DHT22;10059;59.850;10.454;2023-05-23T14:23:30;18.10;99.90
19799;DHT22;10059;59.850;10.454;2023-05-23T14:25:57;18.20;99.90
19799;DHT22;10059;59.850;10.454;2023-05-23T14:28:25;18.10;99.90
19799;DHT22;10059;59.850;10.454;2023-05-23T14:30:53;18.10;99.90
19799;DHT22;10059;59.850;10.454;2023-05-23T14:33:20;18.60;99.90
19799;DHT22;10059;59.850;10.454;2023-05-23T14:35:47;18.80;99.90
19799;DHT22;10059;59.850;10.454;2023-05-23T14:38:14;19.20;99.90
19799;DHT22;10059;59.850;10.454;2023-05-23T14:40:41;19.40;99.90
19799;DHT22;10059;59.850;10.454;2023-05-23T14:43:08;19.40;99.90
19799;DHT22;10059;59.850;10.454;2023-05-23T14:45:36;19.40;99.90
19799;DHT22;10059;59.850;10.454;2023-05-23T14:48:03;19.10;99.90
19799;DHT22;10059;59.850;10.454;2023-05-23T14:50:30;19.10;99.90
19799;DHT22;10059;59.850;10.454;2023-05-23T14:52:57;19.50;99.90
19799;DHT22;10059;59.850;10.454;2023-05-23T14:55:25;19.50;99.90
19799;DHT22;10059;59.850;10.454;2023-05-23T14:57:52;19.40;99.90
19799;DHT22;10059;59.850;10.454;2023-05-23T15:00:19;19.10;99.90
19799;DHT22;10059;59.850;10.454;2023-05-23T15:02:47;19.20;99.90
19799;DHT22;10059;59.850;10.454;2023-05-23T15:05:14;19.10;99.90
19799;DHT22;10059;59.850;10.454;2023-05-23T15:07:41;19.20;99.90
19799;DHT22;10059;59.850;10.454;2023-05-23T15:10:09;18.90;99.90
19799;DHT22;10059;59.850;10.454;2023-05-23T15:12:35;19.10;99.90
19799;DHT22;10059;59.850;10.454;2023-05-23T15:15:03;19.00;99.90
19799;DHT22;10059;59.850;10.454;2023-05-23T15:17:31;19.30;99.90
19799;DHT22;10059;59.850;10.454;2023-05-23T15:19:59;19.50;99.90
19799;DHT22;10059;59.850;10.454;2023-05-23T15:22:26;19.70;99.90
19799;DHT22;10059;59.850;10.454;2023-05-23T15:24:53;19.80;99.90